createdAt,value
2023-03-19T00:00:43.783Z,5.75
2023-03-19T00:03:11.030Z,4.68
2023-03-19T00:05:38.398Z,4.50
2023-03-19T00:08:06.204Z,5.65
2023-03-19T00:10:33.195Z,6.00
2023-03-19T00:13:00.164Z,5.82
2023-03-19T00:15:27.190Z,5.68
2023-03-19T00:17:54.445Z,4.85
2023-03-19T00:20:22.273Z,6.32
2023-03-19T00:22:49.339Z,6.13
2023-03-19T00:25:17.396Z,6.00
2023-03-19T00:27:44.723Z,6.13
2023-03-19T00:30:12.170Z,4.75
2023-03-19T00:32:39.545Z,6.20
2023-03-19T00:35:07.787Z,7.00
2023-03-19T00:37:35.709Z,7.43
2023-03-19T00:40:04.395Z,6.68
2023-03-19T00:42:31.989Z,7.68
2023-03-19T00:44:59.267Z,4.65
2023-03-19T00:47:27.105Z,7.28
2023-03-19T00:49:54.087Z,5.50
2023-03-19T00:52:21.300Z,9.15
2023-03-19T00:54:48.416Z,6.13
2023-03-19T00:57:15.680Z,5.57
2023-03-19T00:59:43.642Z,6.55
2023-03-19T01:02:10.981Z,5.15
2023-03-19T01:04:38.053Z,5.40
2023-03-19T01:07:05.131Z,5.30
2023-03-19T01:09:32.870Z,6.38
2023-03-19T01:12:03.782Z,5.22
2023-03-19T01:14:32.537Z,6.20
2023-03-19T01:16:59.755Z,5.80
2023-03-19T01:19:27.470Z,5.82
2023-03-19T01:21:54.529Z,5.13
2023-03-19T01:24:22.972Z,5.55
2023-03-19T01:26:53.597Z,5.47
2023-03-19T01:29:30.441Z,5.18
2023-03-19T01:32:00.649Z,6.57
2023-03-19T01:34:47.960Z,6.38
2023-03-19T01:37:17.071Z,5.20
2023-03-19T01:39:45.534Z,5.75
2023-03-19T01:42:14.845Z,5.60
2023-03-19T01:44:50.539Z,6.70
2023-03-19T01:47:42.006Z,6.97
2023-03-19T01:50:25.870Z,6.80
2023-03-19T01:53:15.961Z,4.80
2023-03-19T01:55:50.650Z,5.72
2023-03-19T01:58:43.297Z,5.18
2023-03-19T02:01:32.182Z,5.85
2023-03-19T02:04:00.708Z,6.75
2023-03-19T02:06:31.743Z,5.60
2023-03-19T02:08:59.457Z,4.82
2023-03-19T02:11:26.977Z,6.53
2023-03-19T02:13:54.102Z,5.57
2023-03-19T02:16:21.765Z,5.07
2023-03-19T02:18:49.482Z,5.68
2023-03-19T02:21:18.617Z,6.40
2023-03-19T02:24:11.357Z,5.47
2023-03-19T02:27:06.568Z,6.43
2023-03-19T02:29:34.022Z,5.55
2023-03-19T02:32:03.628Z,5.25
2023-03-19T02:34:36.390Z,6.78
2023-03-19T02:37:17.112Z,4.90
2023-03-19T02:40:09.207Z,7.43
2023-03-19T02:42:36.301Z,6.13
2023-03-19T02:45:03.446Z,5.32
2023-03-19T02:47:30.550Z,7.35
2023-03-19T02:49:57.589Z,6.78
2023-03-19T02:52:26.040Z,5.50
2023-03-19T02:54:53.084Z,6.38
2023-03-19T02:57:20.569Z,5.35
2023-03-19T02:59:47.510Z,6.07
2023-03-19T03:02:15.413Z,3.30
2023-03-19T03:04:42.392Z,6.25
2023-03-19T03:07:09.777Z,7.30
2023-03-19T03:09:36.777Z,7.95
2023-03-19T03:12:04.145Z,4.68
2023-03-19T03:14:31.223Z,6.82
2023-03-19T03:16:58.769Z,7.35
2023-03-19T03:19:25.792Z,4.55
2023-03-19T03:21:52.820Z,8.73
2023-03-19T03:24:19.840Z,7.22
2023-03-19T03:26:46.924Z,9.52
2023-03-19T03:29:15.507Z,4.78
2023-03-19T03:31:42.752Z,5.43
2023-03-19T03:34:10.219Z,5.95
2023-03-19T03:36:37.650Z,7.40
2023-03-19T03:39:05.108Z,6.13
2023-03-19T03:41:32.276Z,7.40
2023-03-19T03:44:00.804Z,6.78
2023-03-19T03:46:28.012Z,6.03
2023-03-19T03:48:55.347Z,6.65
2023-03-19T03:51:22.368Z,10.73
2023-03-19T03:53:49.431Z,8.40
2023-03-19T03:56:16.462Z,7.28
2023-03-19T03:58:43.676Z,6.15
2023-03-19T04:01:15.966Z,6.90
2023-03-19T04:03:46.561Z,8.68
2023-03-19T04:06:18.929Z,5.20
2023-03-19T04:08:49.887Z,8.20
2023-03-19T04:11:16.944Z,9.32
2023-03-19T04:13:43.961Z,8.30
2023-03-19T04:16:11.351Z,4.55
2023-03-19T04:18:38.865Z,9.20
2023-03-19T04:21:06.905Z,6.30
2023-03-19T04:23:33.921Z,8.38
2023-03-19T04:26:03.289Z,7.78
2023-03-19T04:28:31.341Z,8.43
2023-03-19T04:31:02.967Z,8.63
2023-03-19T04:33:32.227Z,7.80
2023-03-19T04:35:59.769Z,9.20
2023-03-19T04:38:27.759Z,7.70
2023-03-19T04:40:56.279Z,6.72
2023-03-19T04:43:24.249Z,6.80
2023-03-19T04:45:52.313Z,7.13
2023-03-19T04:48:21.377Z,7.22
2023-03-19T04:50:52.304Z,5.93
2023-03-19T04:53:20.773Z,9.60
2023-03-19T04:55:48.582Z,11.90
2023-03-19T04:58:18.112Z,10.10
2023-03-19T05:00:49.808Z,10.18
2023-03-19T05:03:22.028Z,7.38
2023-03-19T05:05:49.256Z,8.23
2023-03-19T05:08:16.545Z,8.25
2023-03-19T05:10:43.817Z,8.88
2023-03-19T05:13:11.170Z,9.82
2023-03-19T05:15:44.492Z,6.20
2023-03-19T05:18:13.272Z,7.50
2023-03-19T05:20:44.422Z,10.98
2023-03-19T05:23:21.043Z,9.65
2023-03-19T05:26:02.524Z,8.90
2023-03-19T05:28:58.855Z,7.85
2023-03-19T05:31:35.320Z,9.43
2023-03-19T05:34:02.444Z,5.70
2023-03-19T05:36:32.432Z,9.43
2023-03-19T05:39:11.192Z,9.15
2023-03-19T05:41:40.975Z,11.82
2023-03-19T05:44:07.941Z,6.40
2023-03-19T05:46:46.764Z,8.52
2023-03-19T05:49:14.606Z,9.65
2023-03-19T05:51:41.700Z,8.65
2023-03-19T05:54:09.555Z,7.55
2023-03-19T05:57:05.476Z,14.05
2023-03-19T05:59:42.753Z,11.48
2023-03-19T06:02:27.189Z,12.70
2023-03-19T06:05:08.611Z,13.52
2023-03-19T06:07:36.317Z,20.45
2023-03-19T06:10:06.683Z,17.88
2023-03-19T06:12:33.861Z,26.63
2023-03-19T06:15:19.190Z,18.45
2023-03-19T06:18:08.692Z,23.10
2023-03-19T06:20:36.655Z,17.48
2023-03-19T06:23:04.223Z,24.75
2023-03-19T06:25:31.728Z,22.60
2023-03-19T06:27:58.693Z,27.13
2023-03-19T06:30:32.031Z,29.27
2023-03-19T06:33:01.692Z,27.88
2023-03-19T06:35:29.034Z,30.88
2023-03-19T06:37:56.293Z,27.95
2023-03-19T06:40:23.306Z,29.25
2023-03-19T06:42:50.896Z,24.77
2023-03-19T06:45:21.488Z,34.33
2023-03-19T06:47:48.501Z,24.50
2023-03-19T06:50:16.882Z,30.70
2023-03-19T06:52:44.304Z,31.92
2023-03-19T06:55:12.395Z,30.00
2023-03-19T06:57:39.439Z,32.17
2023-03-19T07:00:07.599Z,22.52
2023-03-19T07:02:34.844Z,34.85
2023-03-19T07:05:01.775Z,33.08
2023-03-19T07:07:28.756Z,33.13
2023-03-19T07:09:55.775Z,33.13
2023-03-19T07:12:22.871Z,36.83
2023-03-19T07:14:49.854Z,26.10
2023-03-19T07:17:16.849Z,37.90
2023-03-19T07:19:43.754Z,39.25
2023-03-19T07:22:10.938Z,37.55
2023-03-19T07:24:37.902Z,37.47
2023-03-19T07:27:05.007Z,34.50
2023-03-19T07:29:31.976Z,27.17
2023-03-19T07:31:59.135Z,36.50
2023-03-19T07:34:26.465Z,30.85
2023-03-19T07:36:53.567Z,28.75
2023-03-19T07:39:21.361Z,23.30
2023-03-19T07:41:48.727Z,29.45
2023-03-19T07:44:16.723Z,26.00
2023-03-19T07:46:44.184Z,23.13
2023-03-19T07:49:11.146Z,21.70
2023-03-19T07:51:38.282Z,22.13
2023-03-19T07:54:05.340Z,20.65
2023-03-19T07:56:32.529Z,19.95
2023-03-19T07:59:00.026Z,15.93
2023-03-19T08:01:27.270Z,21.02
2023-03-19T08:03:54.246Z,23.83
2023-03-19T08:06:22.084Z,15.90
2023-03-19T08:08:49.047Z,16.42
2023-03-19T08:11:16.204Z,18.88
2023-03-19T08:13:43.189Z,17.83
2023-03-19T08:16:10.463Z,17.30
2023-03-19T08:18:37.449Z,14.77
2023-03-19T08:21:04.713Z,16.58
2023-03-19T08:23:31.733Z,18.55
2023-03-19T08:25:58.786Z,19.42
2023-03-19T08:28:26.074Z,16.25
2023-03-19T08:30:53.254Z,19.02
2023-03-19T08:33:20.334Z,16.90
2023-03-19T08:35:47.815Z,17.50
2023-03-19T08:38:14.756Z,15.35
2023-03-19T08:40:41.788Z,13.23
2023-03-19T08:43:08.766Z,16.02
2023-03-19T08:45:35.942Z,13.32
2023-03-19T08:48:03.179Z,15.23
2023-03-19T08:50:30.229Z,16.00
2023-03-19T08:52:57.720Z,16.02
2023-03-19T08:55:25.225Z,14.73
2023-03-19T08:57:52.218Z,18.23
2023-03-19T09:00:19.778Z,15.40
2023-03-19T09:02:47.145Z,14.85
2023-03-19T09:05:14.249Z,19.70
2023-03-19T09:07:41.357Z,15.43
2023-03-19T09:10:08.808Z,14.25
2023-03-19T09:12:36.175Z,18.35
2023-03-19T09:15:03.484Z,13.98
2023-03-19T09:17:30.521Z,15.15
2023-03-19T09:19:57.578Z,11.50
2023-03-19T09:22:24.588Z,11.73
2023-03-19T09:24:52.193Z,11.05
2023-03-19T09:27:19.899Z,4.80
2023-03-19T09:29:46.968Z,3.50
2023-03-19T09:32:13.950Z,3.90
2023-03-19T09:34:47.856Z,4.05
2023-03-19T09:37:16.300Z,4.10
2023-03-19T09:39:43.658Z,3.63
2023-03-19T09:42:29.403Z,3.03
2023-03-19T09:44:56.658Z,4.60
2023-03-19T09:47:39.577Z,4.05
2023-03-19T09:50:28.963Z,3.38
2023-03-19T09:53:04.690Z,5.15
2023-03-19T09:55:41.451Z,3.13
2023-03-19T09:58:28.248Z,4.05
2023-03-19T10:00:56.604Z,3.35
2023-03-19T10:03:45.120Z,6.35
2023-03-19T10:06:18.199Z,5.28
2023-03-19T10:08:50.439Z,3.20
2023-03-19T10:11:34.410Z,4.05
2023-03-19T10:14:14.815Z,4.07
2023-03-19T10:16:45.471Z,3.05
2023-03-19T10:19:17.077Z,4.20
2023-03-19T10:21:52.154Z,3.92
2023-03-19T10:24:22.583Z,4.20
2023-03-19T10:26:55.890Z,3.90
2023-03-19T10:29:24.465Z,5.38
2023-03-19T10:32:18.296Z,4.47
2023-03-19T10:34:50.509Z,5.43
2023-03-19T10:37:30.625Z,5.20
2023-03-19T10:39:59.702Z,5.10
2023-03-19T10:43:15.489Z,5.20
2023-03-19T10:45:42.959Z,5.45
2023-03-19T10:48:16.829Z,6.30
2023-03-19T10:53:19.218Z,6.72
2023-03-19T10:56:23.146Z,4.30
2023-03-19T10:59:05.786Z,3.50
2023-03-19T11:01:41.394Z,3.38
2023-03-19T11:04:23.534Z,3.17
2023-03-19T11:06:53.039Z,3.42
2023-03-19T11:09:32.860Z,4.05
2023-03-19T11:12:07.365Z,2.50
2023-03-19T11:14:36.984Z,5.28
2023-03-19T11:17:25.743Z,5.07
2023-03-19T11:19:54.186Z,3.40
2023-03-19T11:22:25.532Z,4.03
2023-03-19T11:24:59.951Z,3.58
2023-03-19T11:27:35.168Z,4.90
2023-03-19T11:30:07.652Z,4.80
2023-03-19T11:32:37.558Z,4.25
2023-03-19T11:35:17.585Z,4.68
2023-03-19T11:37:57.373Z,3.90
2023-03-19T11:40:43.696Z,3.13
2023-03-19T11:43:36.765Z,4.05
2023-03-19T11:46:31.594Z,4.60
2023-03-19T11:49:13.849Z,5.07
2023-03-19T11:52:02.920Z,5.38
2023-03-19T11:54:37.121Z,6.90
2023-03-19T11:57:17.217Z,6.57
2023-03-19T11:59:56.525Z,7.10
2023-03-19T12:02:54.169Z,5.55
2023-03-19T12:05:35.497Z,7.30
2023-03-19T12:08:23.762Z,7.03
2023-03-19T12:11:12.281Z,8.18
2023-03-19T12:13:57.448Z,7.15
2023-03-19T12:16:45.797Z,8.50
2023-03-19T12:19:46.473Z,8.38
2023-03-19T12:22:33.067Z,6.13
2023-03-19T12:25:09.281Z,6.95
2023-03-19T12:27:43.082Z,7.28
2023-03-19T12:30:27.371Z,5.45
2023-03-19T12:35:29.783Z,9.23
2023-03-19T12:38:19.237Z,6.57
2023-03-19T12:41:04.206Z,7.57
2023-03-19T12:43:37.290Z,5.45
2023-03-19T12:46:16.160Z,6.82
2023-03-19T12:48:50.321Z,5.90
2023-03-19T12:51:21.843Z,5.35
2023-03-19T12:54:04.946Z,7.13
2023-03-19T12:56:59.970Z,6.00
2023-03-19T12:59:44.810Z,6.40
2023-03-19T13:02:41.075Z,6.75
2023-03-19T13:05:32.586Z,9.77
2023-03-19T13:08:13.501Z,7.10
2023-03-19T13:10:41.265Z,6.68
2023-03-19T13:13:27.866Z,6.03
2023-03-19T13:16:01.789Z,9.50
2023-03-19T13:21:25.283Z,6.28
2023-03-19T13:24:12.128Z,7.32
2023-03-19T13:26:40.119Z,9.25
2023-03-19T13:29:17.189Z,5.00
2023-03-19T13:31:44.406Z,8.18
2023-03-19T13:34:20.455Z,6.95
2023-03-19T13:37:07.849Z,7.45
2023-03-19T13:39:36.228Z,6.63
2023-03-19T13:42:31.011Z,11.85
2023-03-19T13:45:31.738Z,8.07
2023-03-19T13:48:24.594Z,6.70
2023-03-19T13:51:16.231Z,7.43
2023-03-19T13:54:08.285Z,7.22
2023-03-19T13:57:03.550Z,7.93
2023-03-19T13:59:38.354Z,7.68
2023-03-19T14:02:26.129Z,5.50
2023-03-19T14:05:18.483Z,7.38
2023-03-19T14:07:51.518Z,7.55
2023-03-19T14:10:30.814Z,10.07
2023-03-19T14:13:08.503Z,11.25
2023-03-19T14:15:38.976Z,11.35
2023-03-19T14:18:07.529Z,9.20
2023-03-19T14:20:51.751Z,9.48
2023-03-19T14:23:39.629Z,7.25
2023-03-19T14:26:26.043Z,6.10
2023-03-19T14:29:03.612Z,8.70
2023-03-19T14:31:47.262Z,11.43
2023-03-19T14:34:20.894Z,5.57
2023-03-19T14:37:00.973Z,10.73
2023-03-19T14:39:34.489Z,9.88
2023-03-19T14:42:16.531Z,10.98
2023-03-19T14:45:24.732Z,9.32
2023-03-19T14:48:00.925Z,10.57
2023-03-19T14:50:48.128Z,6.85
2023-03-19T14:53:35.976Z,7.80
2023-03-19T14:56:15.833Z,7.05
2023-03-19T14:58:55.133Z,9.13
2023-03-19T15:01:24.764Z,8.18
2023-03-19T15:03:57.444Z,8.02
2023-03-19T15:06:25.330Z,9.38
2023-03-19T15:08:52.564Z,7.90
2023-03-19T15:12:10.308Z,7.35
2023-03-19T15:15:14.792Z,7.13
2023-03-19T15:17:45.283Z,7.32
2023-03-19T15:20:22.358Z,5.72
2023-03-19T15:23:01.727Z,10.82
2023-03-19T15:25:28.873Z,8.13
2023-03-19T15:28:13.554Z,9.68
2023-03-19T15:30:53.751Z,9.73
2023-03-19T15:33:40.140Z,8.60
2023-03-19T15:36:18.302Z,9.25
2023-03-19T15:38:58.578Z,8.10
2023-03-19T15:41:28.670Z,8.95
2023-03-19T15:43:56.668Z,10.20
2023-03-19T15:46:28.623Z,8.77
2023-03-19T15:49:06.263Z,10.40
2023-03-19T15:51:34.073Z,10.23
2023-03-19T15:54:02.384Z,12.32
2023-03-19T15:56:30.230Z,6.75
2023-03-19T15:58:58.833Z,11.05
2023-03-19T16:01:27.587Z,8.77
2023-03-19T16:04:07.007Z,9.95
2023-03-19T16:06:39.665Z,10.85
2023-03-19T16:09:14.538Z,8.60
2023-03-19T16:11:44.391Z,10.65
2023-03-19T16:14:14.675Z,7.75
2023-03-19T16:16:45.357Z,7.22
2023-03-19T16:19:31.357Z,7.10
2023-03-19T16:21:59.548Z,9.52
2023-03-19T16:24:37.654Z,9.57
2023-03-19T16:27:07.974Z,11.07
2023-03-19T16:29:44.550Z,10.20
2023-03-19T16:32:25.434Z,9.15
2023-03-19T16:35:05.602Z,7.85
2023-03-19T16:37:38.413Z,7.05
2023-03-19T16:40:17.252Z,7.88
2023-03-19T16:42:45.242Z,6.10
2023-03-19T16:45:14.904Z,7.90
2023-03-19T16:47:50.122Z,8.18
2023-03-19T16:50:19.262Z,7.70
2023-03-19T16:52:47.326Z,8.70
2023-03-19T16:55:20.429Z,10.77
2023-03-19T16:57:56.054Z,7.43
2023-03-19T17:00:24.765Z,6.57
2023-03-19T17:02:58.392Z,6.10
2023-03-19T17:05:27.912Z,9.63
2023-03-19T17:07:55.845Z,9.07
2023-03-19T17:10:25.766Z,8.70
2023-03-19T17:12:54.834Z,8.18
2023-03-19T17:15:29.943Z,6.13
2023-03-19T17:17:57.424Z,9.80
2023-03-19T17:20:31.594Z,8.35
2023-03-19T17:22:58.788Z,9.43
2023-03-19T17:25:26.065Z,9.80
2023-03-19T17:27:53.192Z,8.07
2023-03-19T17:30:20.331Z,8.02
2023-03-19T17:32:49.690Z,5.90
2023-03-19T17:35:20.173Z,7.90
2023-03-19T17:37:47.958Z,7.65
2023-03-19T17:40:28.212Z,7.25
2023-03-19T17:42:56.501Z,10.07
2023-03-19T17:45:29.872Z,4.63
2023-03-19T17:47:58.620Z,7.90
2023-03-19T17:50:33.374Z,8.57
2023-03-19T17:53:00.869Z,5.38
2023-03-19T17:55:29.844Z,7.13
2023-03-19T17:57:57.287Z,10.10
2023-03-19T18:00:25.427Z,7.45
2023-03-19T18:02:54.717Z,5.32
2023-03-19T18:05:24.155Z,7.28
2023-03-19T18:07:53.976Z,5.80
2023-03-19T18:10:23.354Z,7.47
2023-03-19T18:12:50.569Z,7.85
2023-03-19T18:15:17.705Z,7.97
2023-03-19T18:17:49.686Z,8.70
2023-03-19T18:20:19.571Z,6.78
2023-03-19T18:22:46.568Z,6.10
2023-03-19T18:25:22.254Z,7.32
2023-03-19T18:27:49.905Z,5.40
2023-03-19T18:30:19.184Z,8.48
2023-03-19T18:32:49.584Z,7.50
2023-03-19T18:35:19.984Z,5.25
2023-03-19T18:37:49.295Z,7.43
2023-03-19T18:40:19.405Z,8.85
2023-03-19T18:42:47.411Z,7.57
2023-03-19T18:45:15.965Z,8.63
2023-03-19T18:47:44.242Z,8.90
2023-03-19T18:50:33.006Z,8.48
2023-03-19T18:53:00.502Z,6.68
2023-03-19T18:55:29.765Z,12.00
2023-03-19T18:58:01.562Z,9.55
2023-03-19T19:00:32.456Z,25.30
2023-03-19T19:03:01.466Z,27.15
2023-03-19T19:05:32.694Z,37.25
2023-03-19T19:08:03.926Z,34.67
2023-03-19T19:10:34.636Z,28.33
2023-03-19T19:13:03.264Z,23.23
2023-03-19T19:15:35.993Z,18.58
2023-03-19T19:18:23.911Z,16.20
2023-03-19T19:20:53.378Z,14.90
2023-03-19T19:23:21.672Z,10.52
2023-03-19T19:25:55.166Z,11.75
2023-03-19T19:28:30.596Z,10.65
2023-03-19T19:30:59.855Z,10.32
2023-03-19T19:33:31.658Z,11.38
2023-03-19T19:35:59.175Z,9.82
2023-03-19T19:38:26.194Z,10.95
2023-03-19T19:40:55.436Z,9.25
2023-03-19T19:43:25.599Z,11.13
2023-03-19T19:45:55.345Z,9.75
2023-03-19T19:48:28.484Z,7.70
2023-03-19T19:50:56.595Z,11.93
2023-03-19T19:53:27.461Z,11.50
2023-03-19T19:55:54.503Z,12.27
2023-03-19T19:58:26.562Z,10.52
2023-03-19T20:01:03.476Z,13.70
2023-03-19T20:03:33.331Z,12.57
2023-03-19T20:06:02.438Z,14.02
2023-03-19T20:08:29.838Z,14.30
2023-03-19T20:10:57.369Z,12.10
2023-03-19T20:13:37.807Z,13.35
2023-03-19T20:16:05.831Z,14.25
2023-03-19T20:18:35.652Z,12.48
2023-03-19T20:21:04.220Z,11.98
2023-03-19T20:23:31.471Z,16.30
2023-03-19T20:25:58.569Z,10.63
2023-03-19T20:28:27.505Z,18.92
2023-03-19T20:30:55.226Z,12.43
2023-03-19T20:33:22.547Z,12.82
2023-03-19T20:35:50.508Z,18.15
2023-03-19T20:38:17.963Z,20.90
2023-03-19T20:40:51.258Z,19.58
2023-03-19T20:43:25.609Z,23.55
2023-03-19T20:45:57.040Z,22.98
2023-03-19T20:48:25.753Z,26.40
2023-03-19T20:50:52.829Z,18.08
2023-03-19T20:53:20.206Z,12.27
2023-03-19T20:55:47.967Z,13.18
2023-03-19T20:58:31.781Z,12.95
2023-03-19T21:00:59.406Z,16.77
2023-03-19T21:03:29.393Z,14.25
2023-03-19T21:06:02.802Z,13.23
2023-03-19T21:08:37.337Z,17.13
2023-03-19T21:11:04.686Z,14.82
2023-03-19T21:13:32.120Z,8.00
2023-03-19T21:15:59.717Z,17.15
2023-03-19T21:18:26.852Z,8.30
2023-03-19T21:20:56.875Z,11.30
2023-03-19T21:23:37.883Z,14.50
2023-03-19T21:26:16.534Z,10.70
2023-03-19T21:28:45.384Z,12.25
2023-03-19T21:31:20.752Z,12.45
2023-03-19T21:33:49.459Z,12.88
2023-03-19T21:36:17.176Z,10.63
2023-03-19T21:38:44.765Z,11.13
2023-03-19T21:41:30.387Z,11.18
2023-03-19T21:44:00.932Z,10.90
2023-03-19T21:46:30.452Z,13.00
2023-03-19T21:48:58.769Z,8.77
2023-03-19T21:51:28.260Z,9.80
2023-03-19T21:53:56.156Z,12.05
2023-03-19T21:56:25.590Z,8.45
2023-03-19T21:58:53.318Z,10.30
2023-03-19T22:01:25.437Z,8.25
2023-03-19T22:03:53.920Z,10.02
2023-03-19T22:06:22.136Z,14.50
2023-03-19T22:08:51.013Z,7.63
2023-03-19T22:11:20.266Z,6.78
2023-03-19T22:13:47.741Z,8.10
2023-03-19T22:16:26.074Z,13.13
2023-03-19T22:18:53.493Z,12.63
2023-03-19T22:21:22.177Z,13.32
2023-03-19T22:23:49.652Z,11.85
2023-03-19T22:26:39.467Z,9.40
2023-03-19T22:29:22.814Z,13.25
2023-03-19T22:31:51.866Z,11.50
2023-03-19T22:34:21.560Z,9.77
2023-03-19T22:36:49.321Z,8.68
2023-03-19T22:39:16.657Z,8.18
2023-03-19T22:41:46.556Z,9.80
2023-03-19T22:44:28.118Z,7.55
2023-03-19T22:46:57.276Z,12.65
2023-03-19T22:49:24.888Z,13.52
2023-03-19T22:51:52.214Z,16.60
2023-03-19T22:54:19.149Z,10.48
2023-03-19T22:56:46.126Z,11.52
2023-03-19T22:59:13.827Z,8.18
2023-03-19T23:01:44.066Z,13.65
2023-03-19T23:04:22.265Z,8.85
2023-03-19T23:06:51.211Z,12.25
2023-03-19T23:09:24.603Z,12.07
2023-03-19T23:11:52.688Z,12.00
2023-03-19T23:14:36.042Z,10.55
2023-03-19T23:17:12.607Z,15.55
2023-03-19T23:19:39.732Z,13.77
2023-03-19T23:22:10.736Z,13.00
2023-03-19T23:24:37.784Z,13.23
2023-03-19T23:27:04.989Z,14.82
2023-03-19T23:29:35.559Z,14.32
2023-03-19T23:32:03.488Z,11.93
2023-03-19T23:34:30.448Z,11.82
2023-03-19T23:36:58.084Z,13.65
2023-03-19T23:39:25.694Z,18.88
2023-03-19T23:41:55.926Z,9.98
2023-03-19T23:44:23.510Z,22.27
2023-03-19T23:46:52.110Z,11.32
2023-03-19T23:49:28.927Z,12.10
2023-03-19T23:51:56.796Z,14.57
2023-03-19T23:54:29.776Z,17.33
2023-03-19T23:56:59.805Z,17.08
2023-03-19T23:59:29.718Z,19.52
